createdAt,value
2017-10-02T00:01:30.757Z,11.70
2017-10-02T00:04:00.033Z,11.70
2017-10-02T00:06:29.268Z,11.70
2017-10-02T00:08:58.545Z,11.80
2017-10-02T00:11:27.799Z,11.80
2017-10-02T00:13:57.030Z,11.80
2017-10-02T00:16:26.289Z,11.90
2017-10-02T00:18:56.341Z,11.90
2017-10-02T00:21:25.579Z,11.90
2017-10-02T00:23:54.854Z,11.90
2017-10-02T00:26:24.095Z,12.00
2017-10-02T00:28:54.194Z,11.90
2017-10-02T00:31:23.445Z,11.90
2017-10-02T00:33:52.802Z,11.90
2017-10-02T00:36:22.077Z,11.90
2017-10-02T00:38:51.327Z,11.90
2017-10-02T00:41:20.573Z,11.90
2017-10-02T00:43:49.820Z,11.80
2017-10-02T00:46:19.830Z,11.80
2017-10-02T00:48:49.122Z,11.80
2017-10-02T00:51:18.361Z,11.80
2017-10-02T00:53:47.832Z,11.60
2017-10-02T00:56:17.845Z,11.50
2017-10-02T00:58:47.097Z,11.50
2017-10-02T01:01:16.342Z,11.50
2017-10-02T01:03:45.649Z,11.40
2017-10-02T01:06:14.952Z,11.40
2017-10-02T01:08:44.969Z,11.30
2017-10-02T01:11:14.233Z,11.30
2017-10-02T01:13:43.674Z,11.20
2017-10-02T01:16:12.932Z,11.00
2017-10-02T01:18:42.289Z,11.00
2017-10-02T01:21:12.419Z,10.90
2017-10-02T01:23:41.700Z,10.90
2017-10-02T01:26:11.029Z,10.90
2017-10-02T01:28:40.296Z,10.90
2017-10-02T01:31:09.629Z,11.00
2017-10-02T01:33:38.890Z,11.00
2017-10-02T01:36:08.134Z,11.10
2017-10-02T01:38:37.510Z,11.10
2017-10-02T01:41:06.781Z,11.20
2017-10-02T01:43:36.131Z,11.20
2017-10-02T01:46:06.162Z,11.40
2017-10-02T01:48:36.353Z,11.30
2017-10-02T01:51:05.621Z,11.40
2017-10-02T01:53:34.972Z,11.50
2017-10-02T01:56:05.022Z,11.60
2017-10-02T01:58:34.261Z,11.60
2017-10-02T02:01:03.522Z,11.60
2017-10-02T02:03:32.781Z,11.50
2017-10-02T02:06:02.901Z,11.50
2017-10-02T02:08:33.065Z,11.50
2017-10-02T02:11:02.306Z,11.40
2017-10-02T02:13:31.557Z,11.40
2017-10-02T02:16:00.849Z,11.30
2017-10-02T02:18:30.108Z,11.30
2017-10-02T02:20:59.341Z,11.30
2017-10-02T02:23:30.154Z,11.20
2017-10-02T02:25:59.385Z,11.20
2017-10-02T02:28:28.641Z,11.20
2017-10-02T02:30:57.884Z,11.20
2017-10-02T02:33:27.122Z,11.20
2017-10-02T02:35:56.397Z,11.20
2017-10-02T02:38:25.661Z,11.20
2017-10-02T02:40:54.965Z,11.20
2017-10-02T02:43:24.983Z,11.30
2017-10-02T02:45:54.996Z,11.30
2017-10-02T02:48:24.324Z,11.30
2017-10-02T02:50:53.602Z,11.20
2017-10-02T02:53:22.923Z,11.20
2017-10-02T02:55:52.191Z,11.20
2017-10-02T02:58:21.574Z,11.10
2017-10-02T03:00:50.818Z,11.00
2017-10-02T03:03:21.557Z,10.90
2017-10-02T03:05:51.592Z,10.90
2017-10-02T03:08:20.884Z,10.90
2017-10-02T03:10:50.207Z,10.90
2017-10-02T03:13:19.577Z,10.90
2017-10-02T03:15:49.677Z,10.90
2017-10-02T03:18:19.743Z,10.90
2017-10-02T03:20:48.988Z,10.90
2017-10-02T03:23:18.409Z,10.90
2017-10-02T03:25:47.717Z,11.00
2017-10-02T03:28:17.751Z,10.90
2017-10-02T03:30:47.005Z,10.90
2017-10-02T03:33:16.438Z,10.90
2017-10-02T03:35:45.733Z,10.80
2017-10-02T03:38:15.749Z,10.90
2017-10-02T03:40:45.023Z,10.80
2017-10-02T03:43:14.457Z,10.90
2017-10-02T03:45:43.716Z,10.90
2017-10-02T03:48:12.994Z,10.90
2017-10-02T03:50:42.477Z,10.90
2017-10-02T03:53:11.762Z,11.00
2017-10-02T03:55:41.012Z,11.00
2017-10-02T03:58:10.286Z,11.00
2017-10-02T04:00:40.588Z,11.10
2017-10-02T04:03:09.848Z,11.00
2017-10-02T04:05:39.094Z,11.10
2017-10-02T04:08:08.329Z,11.20
2017-10-02T04:10:37.604Z,11.30
2017-10-02T04:13:07.802Z,11.20
2017-10-02T04:15:37.234Z,11.20
2017-10-02T04:18:07.241Z,11.30
2017-10-02T04:20:36.503Z,11.30
2017-10-02T04:23:05.968Z,11.20
2017-10-02T04:25:35.986Z,11.30
2017-10-02T04:28:05.239Z,11.20
2017-10-02T04:30:34.486Z,11.30
2017-10-02T04:33:04.506Z,11.40
2017-10-02T04:35:33.746Z,11.40
2017-10-02T04:38:03.201Z,11.50
2017-10-02T04:40:33.309Z,11.60
2017-10-02T04:43:02.606Z,11.50
2017-10-02T04:45:31.851Z,11.50
2017-10-02T04:48:01.118Z,11.50
2017-10-02T04:50:30.441Z,11.60
2017-10-02T04:52:59.692Z,11.60
2017-10-02T04:55:29.146Z,11.70
2017-10-02T04:57:59.209Z,11.80
2017-10-02T05:00:28.492Z,11.80
2017-10-02T05:02:57.728Z,11.80
2017-10-02T05:05:27.145Z,11.80
2017-10-02T05:07:57.485Z,11.80
2017-10-02T05:10:27.493Z,11.80
2017-10-02T05:12:57.506Z,11.70
2017-10-02T05:15:27.141Z,11.80
2017-10-02T05:17:56.377Z,11.80
2017-10-02T05:20:25.680Z,11.80
2017-10-02T05:22:54.913Z,11.80
2017-10-02T05:25:24.213Z,11.80
2017-10-02T05:27:53.461Z,11.80
2017-10-02T05:30:22.708Z,11.80
2017-10-02T05:32:51.981Z,11.90
2017-10-02T05:35:21.244Z,12.00
2017-10-02T05:37:51.259Z,12.00
2017-10-02T05:40:20.509Z,12.00
2017-10-02T05:42:49.790Z,12.00
2017-10-02T05:45:19.045Z,12.00
2017-10-02T05:47:49.171Z,12.00
2017-10-02T05:50:18.401Z,12.00
2017-10-02T05:52:47.642Z,12.00
2017-10-02T05:55:16.910Z,12.00
2017-10-02T05:57:46.169Z,12.00
2017-10-02T06:00:16.181Z,12.00
2017-10-02T06:02:45.511Z,12.00
2017-10-02T06:05:14.745Z,12.00
2017-10-02T06:07:43.993Z,12.10
2017-10-02T06:10:14.001Z,12.20
2017-10-02T06:12:43.265Z,12.20
2017-10-02T06:15:12.534Z,12.30
2017-10-02T06:17:41.781Z,12.30
2017-10-02T06:20:11.046Z,12.30
2017-10-02T06:22:40.291Z,12.30
2017-10-02T06:25:09.547Z,12.40
2017-10-02T06:27:38.832Z,12.40
2017-10-02T06:30:09.125Z,12.40
2017-10-02T06:32:38.376Z,12.30
2017-10-02T06:35:07.611Z,12.20
2017-10-02T06:37:36.979Z,12.10
2017-10-02T06:40:06.226Z,12.20
2017-10-02T06:42:35.514Z,12.30
2017-10-02T06:45:04.758Z,12.30
2017-10-02T06:47:34.783Z,12.30
2017-10-02T06:50:04.161Z,12.30
2017-10-02T06:52:34.500Z,12.50
2017-10-02T06:55:04.515Z,12.30
2017-10-02T06:57:33.770Z,12.30
2017-10-02T07:00:03.215Z,12.40
2017-10-02T07:02:33.331Z,12.60
2017-10-02T07:05:03.400Z,12.60
2017-10-02T07:07:32.674Z,12.60
2017-10-02T07:10:01.967Z,12.60
2017-10-02T07:12:31.254Z,12.70
2017-10-02T07:15:00.535Z,12.80
2017-10-02T07:17:29.781Z,12.80
2017-10-02T07:19:59.118Z,12.80
2017-10-02T07:22:28.397Z,12.80
2017-10-02T07:24:57.630Z,12.80
2017-10-02T07:27:26.901Z,12.90
2017-10-02T07:29:56.137Z,12.90
2017-10-02T07:32:25.561Z,13.00
2017-10-02T07:34:54.795Z,13.10
2017-10-02T07:37:24.068Z,13.20
2017-10-02T07:39:53.345Z,13.30
2017-10-02T07:42:22.614Z,13.50
2017-10-02T07:44:51.881Z,13.60
2017-10-02T07:47:21.982Z,13.30
2017-10-02T07:49:52.031Z,13.20
2017-10-02T07:52:21.307Z,13.20
2017-10-02T07:54:50.528Z,13.20
2017-10-02T07:57:20.016Z,13.30
2017-10-02T07:59:49.252Z,13.30
2017-10-02T08:02:18.509Z,13.40
2017-10-02T08:04:47.760Z,13.50
2017-10-02T08:07:17.040Z,13.60
2017-10-02T08:09:46.290Z,13.80
2017-10-02T08:12:15.613Z,13.80
2017-10-02T08:14:44.954Z,13.90
2017-10-02T08:17:14.197Z,14.00
2017-10-02T08:19:43.557Z,14.10
2017-10-02T08:22:13.530Z,14.10
2017-10-02T08:24:42.806Z,14.00
2017-10-02T08:27:12.038Z,14.10
2017-10-02T08:29:42.055Z,14.40
2017-10-02T08:32:11.321Z,14.30
2017-10-02T08:34:40.758Z,14.40
2017-10-02T08:37:10.802Z,14.50
2017-10-02T08:39:40.030Z,14.50
2017-10-02T08:42:09.477Z,14.60
2017-10-02T08:44:38.810Z,14.60
2017-10-02T08:47:08.893Z,14.60
2017-10-02T08:49:38.209Z,14.60
2017-10-02T08:52:08.326Z,14.70
2017-10-02T08:54:37.681Z,14.70
2017-10-02T08:57:06.929Z,14.80
2017-10-02T08:59:37.021Z,14.90
2017-10-02T09:02:06.382Z,14.90
2017-10-02T09:04:35.626Z,14.90
2017-10-02T09:07:04.898Z,14.80
2017-10-02T09:09:34.154Z,14.60
2017-10-02T09:12:04.234Z,14.60
2017-10-02T09:14:33.582Z,14.60
2017-10-02T09:17:02.974Z,14.60
2017-10-02T09:19:32.282Z,14.60
2017-10-02T09:22:02.430Z,14.60
2017-10-02T09:24:31.900Z,14.60
2017-10-02T09:27:01.143Z,14.60
2017-10-02T09:29:30.426Z,14.70
2017-10-02T09:31:59.669Z,14.60
2017-10-02T09:34:29.109Z,14.70
2017-10-02T09:36:58.581Z,14.60
2017-10-02T09:39:27.789Z,14.70
2017-10-02T09:41:57.097Z,14.70
2017-10-02T09:44:26.341Z,14.80
2017-10-02T09:46:55.726Z,14.90
2017-10-02T09:49:24.970Z,14.70
2017-10-02T09:51:54.426Z,14.80
2017-10-02T09:54:24.456Z,15.00
2017-10-02T09:56:53.719Z,15.00
2017-10-02T09:59:23.145Z,15.00
2017-10-02T10:01:52.503Z,15.00
2017-10-02T10:04:21.741Z,15.00
2017-10-02T10:06:51.005Z,15.10
2017-10-02T10:09:20.553Z,15.10
2017-10-02T10:11:49.815Z,15.20
2017-10-02T10:14:19.158Z,15.30
2017-10-02T10:16:48.666Z,15.20
2017-10-02T10:19:17.939Z,15.30
2017-10-02T10:21:47.190Z,15.30
2017-10-02T10:24:16.577Z,15.40
2017-10-02T10:26:46.617Z,15.50
2017-10-02T10:29:15.903Z,15.40
2017-10-02T10:31:45.150Z,15.50
2017-10-02T10:34:14.619Z,15.50
2017-10-02T10:36:44.622Z,15.40
2017-10-02T10:39:13.885Z,15.40
2017-10-02T10:41:43.169Z,15.30
2017-10-02T10:44:12.403Z,15.50
2017-10-02T10:46:41.705Z,15.60
2017-10-02T10:49:11.061Z,15.80
2017-10-02T10:51:40.349Z,15.90
2017-10-02T10:54:09.830Z,16.00
2017-10-02T10:56:39.853Z,15.70
2017-10-02T10:59:09.094Z,15.70
2017-10-02T11:01:38.358Z,15.70
2017-10-02T11:04:08.464Z,15.40
2017-10-02T11:06:37.777Z,15.40
2017-10-02T11:09:07.895Z,15.30
2017-10-02T11:11:37.943Z,15.20
2017-10-02T11:14:07.930Z,15.20
2017-10-02T11:16:37.189Z,15.20
2017-10-02T11:19:06.441Z,15.30
2017-10-02T11:21:35.733Z,15.40
2017-10-02T11:24:05.009Z,15.50
2017-10-02T11:26:34.261Z,15.50
2017-10-02T11:29:03.533Z,15.60
2017-10-02T11:31:33.676Z,15.50
2017-10-02T11:34:03.886Z,15.50
2017-10-02T11:36:33.167Z,15.50
2017-10-02T11:39:02.420Z,15.70
2017-10-02T11:41:31.699Z,15.80
2017-10-02T11:44:00.953Z,15.90
2017-10-02T11:46:31.090Z,15.90
2017-10-02T11:49:00.345Z,15.90
2017-10-02T11:51:29.699Z,16.00
2017-10-02T11:53:59.038Z,16.00
2017-10-02T11:56:28.316Z,16.10
2017-10-02T11:58:58.320Z,16.30
2017-10-02T12:01:28.335Z,16.40
2017-10-02T12:03:57.680Z,16.30
2017-10-02T12:06:27.694Z,16.50
2017-10-02T12:08:57.118Z,16.50
2017-10-02T12:11:26.373Z,16.50
2017-10-02T12:13:56.385Z,16.50
2017-10-02T12:16:25.714Z,16.50
2017-10-02T12:18:54.925Z,16.60
2017-10-02T12:21:24.193Z,16.70
2017-10-02T12:23:54.206Z,16.70
2017-10-02T12:26:23.469Z,16.70
2017-10-02T12:28:52.712Z,16.70
2017-10-02T12:31:22.821Z,16.60
2017-10-02T12:33:52.191Z,16.50
2017-10-02T12:36:22.193Z,16.70
2017-10-02T12:38:51.455Z,16.70
2017-10-02T12:41:20.701Z,16.60
2017-10-02T12:43:49.979Z,16.60
2017-10-02T12:46:19.253Z,16.60
2017-10-02T12:48:49.287Z,16.60
2017-10-02T12:51:18.687Z,16.60
2017-10-02T12:53:48.795Z,16.50
2017-10-02T12:56:18.835Z,16.60
2017-10-02T12:58:48.094Z,16.60
2017-10-02T13:01:17.522Z,16.60
2017-10-02T13:03:47.644Z,16.90
2017-10-02T13:06:18.098Z,17.00
2017-10-02T13:08:47.308Z,17.00
2017-10-02T13:11:16.621Z,17.10
2017-10-02T13:13:45.959Z,17.10
2017-10-02T13:16:15.166Z,17.00
2017-10-02T13:18:44.458Z,17.00
2017-10-02T13:21:13.797Z,17.00
2017-10-02T13:23:43.072Z,17.10
2017-10-02T13:26:12.307Z,17.40
2017-10-02T13:28:41.821Z,17.60
2017-10-02T13:31:11.062Z,17.80
2017-10-02T13:33:40.348Z,18.10
2017-10-02T13:36:09.753Z,18.20
2017-10-02T13:38:39.099Z,18.30
2017-10-02T13:41:09.139Z,18.70
2017-10-02T13:43:38.384Z,18.60
2017-10-02T13:46:07.738Z,18.50
2017-10-02T13:48:36.974Z,18.60
2017-10-02T13:51:06.223Z,18.50
2017-10-02T13:53:36.262Z,18.60
2017-10-02T13:56:05.643Z,18.60
2017-10-02T13:58:35.657Z,18.10
2017-10-02T14:01:04.932Z,18.10
2017-10-02T14:03:34.177Z,18.00
2017-10-02T14:06:03.601Z,17.90
2017-10-02T14:08:32.932Z,17.70
2017-10-02T14:11:02.202Z,17.70
2017-10-02T14:13:31.451Z,17.40
2017-10-02T14:16:01.365Z,17.40
2017-10-02T14:18:30.645Z,17.40
2017-10-02T14:21:00.527Z,17.50
2017-10-02T14:23:29.765Z,17.50
2017-10-02T14:25:59.046Z,17.50
2017-10-02T14:28:28.279Z,17.60
2017-10-02T14:30:57.691Z,17.80
2017-10-02T14:33:29.375Z,18.00
2017-10-02T14:35:58.752Z,18.00
2017-10-02T14:38:28.052Z,18.10
2017-10-02T14:40:57.321Z,18.00
2017-10-02T14:43:26.563Z,18.10
2017-10-02T14:45:55.855Z,17.90
2017-10-02T14:48:25.109Z,18.00
2017-10-02T14:50:54.384Z,18.20
2017-10-02T14:53:23.973Z,18.30
2017-10-02T14:55:53.385Z,18.30
2017-10-02T14:58:23.492Z,18.00
2017-10-02T15:00:53.638Z,18.10
2017-10-02T15:03:22.914Z,18.10
2017-10-02T15:05:53.201Z,18.10
2017-10-02T15:08:22.473Z,18.10
2017-10-02T15:10:51.746Z,17.90
2017-10-02T15:13:21.020Z,17.80
2017-10-02T15:15:50.442Z,17.60
2017-10-02T15:18:19.774Z,17.60
2017-10-02T15:20:49.039Z,17.70
2017-10-02T15:23:18.571Z,17.60
2017-10-02T15:25:48.592Z,17.70
2017-10-02T15:28:17.851Z,17.70
2017-10-02T15:30:47.278Z,17.60
2017-10-02T15:33:17.289Z,17.70
2017-10-02T15:35:46.601Z,17.70
2017-10-02T15:38:15.846Z,17.70
2017-10-02T15:40:45.118Z,17.80
2017-10-02T15:43:14.414Z,17.90
2017-10-02T15:45:43.837Z,18.00
2017-10-02T15:48:13.070Z,18.00
2017-10-02T15:50:42.314Z,17.90
2017-10-02T15:53:11.583Z,17.70
2017-10-02T15:55:40.817Z,17.70
2017-10-02T15:58:10.873Z,17.80
2017-10-02T16:00:40.239Z,17.80
2017-10-02T16:03:10.277Z,17.60
2017-10-02T16:05:39.673Z,17.60
2017-10-02T16:08:08.890Z,17.40
2017-10-02T16:10:38.172Z,17.40
2017-10-02T16:13:07.545Z,17.20
2017-10-02T16:15:36.837Z,17.10
2017-10-02T16:18:06.183Z,17.20
2017-10-02T16:20:35.497Z,17.10
2017-10-02T16:23:04.925Z,17.00
2017-10-02T16:25:34.277Z,16.90
2017-10-02T16:28:04.366Z,16.80
2017-10-02T16:30:33.645Z,16.80
2017-10-02T16:33:02.913Z,16.80
2017-10-02T16:35:32.314Z,16.80
2017-10-02T16:38:01.606Z,16.80
2017-10-02T16:40:31.743Z,16.80
2017-10-02T16:43:00.973Z,16.90
2017-10-02T16:45:30.264Z,16.80
2017-10-02T16:47:59.516Z,16.90
2017-10-02T16:50:28.773Z,16.90
2017-10-02T16:52:58.066Z,16.70
2017-10-02T16:55:27.326Z,16.70
2017-10-02T16:57:57.386Z,16.70
2017-10-02T17:00:26.650Z,16.70
2017-10-02T17:02:55.962Z,16.60
2017-10-02T17:05:25.974Z,16.60
2017-10-02T17:07:56.017Z,16.70
2017-10-02T17:10:25.416Z,16.60
2017-10-02T17:12:54.627Z,16.70
2017-10-02T17:15:23.953Z,16.60
2017-10-02T17:17:53.218Z,16.60
2017-10-02T17:20:22.504Z,16.60
2017-10-02T17:22:51.754Z,16.60
2017-10-02T17:25:21.008Z,16.60
2017-10-02T17:27:50.270Z,16.50
2017-10-02T17:30:19.532Z,16.50
2017-10-02T17:32:48.787Z,16.50
2017-10-02T17:35:18.030Z,16.50
2017-10-02T17:37:47.473Z,16.50
2017-10-02T17:40:16.740Z,16.40
2017-10-02T17:42:46.029Z,16.40
2017-10-02T17:45:15.288Z,16.40
2017-10-02T17:47:46.057Z,16.40
2017-10-02T17:50:15.427Z,16.40
2017-10-02T17:52:44.818Z,16.40
2017-10-02T17:55:14.249Z,16.40
2017-10-02T17:57:43.515Z,16.30
2017-10-02T18:00:12.777Z,16.20
2017-10-02T18:02:42.039Z,16.00
2017-10-02T18:05:11.562Z,15.90
2017-10-02T18:07:40.805Z,15.80
2017-10-02T18:10:10.069Z,15.70
2017-10-02T18:12:39.327Z,15.50
2017-10-02T18:15:08.631Z,15.50
2017-10-02T18:17:37.883Z,15.40
2017-10-02T18:20:07.340Z,15.30
2017-10-02T18:22:36.823Z,15.20
2017-10-02T18:25:06.094Z,15.20
2017-10-02T18:27:35.333Z,15.10
2017-10-02T18:30:04.842Z,15.10
2017-10-02T18:32:34.391Z,15.10
2017-10-02T18:35:03.649Z,15.00
2017-10-02T18:37:33.001Z,15.00
2017-10-02T18:40:02.804Z,14.90
2017-10-02T18:42:32.195Z,14.80
2017-10-02T18:45:02.219Z,14.80
2017-10-02T18:47:31.540Z,14.80
2017-10-02T18:50:00.801Z,14.80
2017-10-02T18:52:30.036Z,14.80
2017-10-02T18:54:59.311Z,14.80
2017-10-02T18:57:28.614Z,14.80
2017-10-02T18:59:57.885Z,14.70
2017-10-02T19:02:27.142Z,14.70
2017-10-02T19:04:56.419Z,14.70
2017-10-02T19:07:25.769Z,14.70
2017-10-02T19:09:55.009Z,14.60
2017-10-02T19:12:24.314Z,14.60
2017-10-02T19:14:53.547Z,14.60
2017-10-02T19:17:22.818Z,14.60
2017-10-02T19:19:52.089Z,14.60
2017-10-02T19:22:21.350Z,14.70
2017-10-02T19:24:50.598Z,14.70
2017-10-02T19:27:19.870Z,14.60
2017-10-02T19:29:49.117Z,14.70
2017-10-02T19:32:18.515Z,14.70
2017-10-02T19:34:47.782Z,14.70
2017-10-02T19:37:17.060Z,14.80
2017-10-02T19:39:46.465Z,14.80
2017-10-02T19:42:15.695Z,14.80
2017-10-02T19:44:45.206Z,14.80
2017-10-02T19:47:14.818Z,14.80
2017-10-02T19:49:44.163Z,14.80
2017-10-02T19:52:13.379Z,14.80
2017-10-02T19:54:42.663Z,14.80
2017-10-02T19:57:12.677Z,14.80
2017-10-02T19:59:43.434Z,14.80
2017-10-02T20:02:12.821Z,14.80
2017-10-02T20:04:42.077Z,14.70
2017-10-02T20:07:11.351Z,14.70
2017-10-02T20:09:40.606Z,14.60
2017-10-02T20:12:09.941Z,14.60
2017-10-02T20:14:39.441Z,14.60
2017-10-02T20:17:08.935Z,14.60
2017-10-02T20:19:38.963Z,14.70
2017-10-02T20:22:08.245Z,14.70
2017-10-02T20:24:37.502Z,14.70
2017-10-02T20:27:06.768Z,14.60
2017-10-02T20:29:36.039Z,14.60
2017-10-02T20:32:06.076Z,14.60
2017-10-02T20:34:35.330Z,14.60
2017-10-02T20:37:04.589Z,14.60
2017-10-02T20:39:34.610Z,14.60
2017-10-02T20:42:03.863Z,14.60
2017-10-02T20:44:33.198Z,14.60
2017-10-02T20:47:03.072Z,14.60
2017-10-02T20:49:32.378Z,14.70
2017-10-02T20:52:02.329Z,14.70
2017-10-02T20:54:31.757Z,14.70
2017-10-02T20:57:01.018Z,14.70
2017-10-02T20:59:30.254Z,14.60
2017-10-02T21:01:59.634Z,14.70
2017-10-02T21:04:29.762Z,14.70
2017-10-02T21:06:59.871Z,14.70
2017-10-02T21:09:29.153Z,14.70
2017-10-02T21:11:58.393Z,14.70
2017-10-02T21:14:27.674Z,14.70
2017-10-02T21:16:57.693Z,14.60
2017-10-02T21:19:27.004Z,14.60
2017-10-02T21:21:57.495Z,14.70
2017-10-02T21:24:26.762Z,14.70
2017-10-02T21:26:56.130Z,14.70
2017-10-02T21:29:26.158Z,14.70
2017-10-02T21:31:55.418Z,14.70
2017-10-02T21:34:24.852Z,14.90
2017-10-02T21:36:54.110Z,14.80
2017-10-02T21:39:23.789Z,14.80
2017-10-02T21:41:54.593Z,14.80
2017-10-02T21:44:23.944Z,14.80
2017-10-02T21:46:53.214Z,14.80
2017-10-02T21:49:23.369Z,14.80
2017-10-02T21:51:52.630Z,14.70
2017-10-02T21:54:21.958Z,14.70
2017-10-02T21:56:51.225Z,14.60
2017-10-02T21:59:20.482Z,14.70
2017-10-02T22:01:49.773Z,14.70
2017-10-02T22:04:19.011Z,14.70
2017-10-02T22:06:48.278Z,14.70
2017-10-02T22:09:17.545Z,14.80
2017-10-02T22:11:47.562Z,14.70
2017-10-02T22:14:16.823Z,14.70
2017-10-02T22:16:46.261Z,14.70
2017-10-02T22:19:16.281Z,14.80
2017-10-02T22:21:45.671Z,14.80
2017-10-02T22:24:16.536Z,14.80
2017-10-02T22:26:45.790Z,14.80
2017-10-02T22:29:15.041Z,14.80
2017-10-02T22:31:44.337Z,14.80
2017-10-02T22:34:15.265Z,14.60
2017-10-02T22:36:45.326Z,14.50
2017-10-02T22:39:14.593Z,14.50
2017-10-02T22:41:43.854Z,14.40
2017-10-02T22:44:13.098Z,14.50
2017-10-02T22:46:42.398Z,14.60
2017-10-02T22:49:11.810Z,14.60
2017-10-02T22:51:41.059Z,14.60
2017-10-02T22:54:10.347Z,14.50
2017-10-02T22:56:39.660Z,14.30
2017-10-02T22:59:08.945Z,14.20
2017-10-02T23:01:38.186Z,13.90
2017-10-02T23:04:08.231Z,13.60
2017-10-02T23:06:37.509Z,13.60
2017-10-02T23:09:06.777Z,13.50
2017-10-02T23:11:36.029Z,13.30
2017-10-02T23:14:05.957Z,13.30
2017-10-02T23:16:35.225Z,13.20
2017-10-02T23:19:06.141Z,13.00
2017-10-02T23:21:35.373Z,13.00
2017-10-02T23:24:04.717Z,13.00
2017-10-02T23:26:33.967Z,13.00
2017-10-02T23:29:03.373Z,13.00
2017-10-02T23:31:33.381Z,12.90
2017-10-02T23:34:02.675Z,12.80
2017-10-02T23:36:31.928Z,12.80
2017-10-02T23:39:01.219Z,12.70
2017-10-02T23:41:30.472Z,12.70
2017-10-02T23:43:59.725Z,12.70
2017-10-02T23:46:28.989Z,12.60
2017-10-02T23:48:58.242Z,12.50
2017-10-02T23:51:27.513Z,12.40
2017-10-02T23:53:56.764Z,12.40
2017-10-02T23:56:26.032Z,12.40
2017-10-02T23:58:55.559Z,12.50
